createdAt,value
2023-03-15T00:00:38.689Z,100174.97
2023-03-15T00:03:07.200Z,100172.53
2023-03-15T00:05:35.539Z,100188.81
2023-03-15T00:08:04.666Z,100182.81
2023-03-15T00:10:32.699Z,100188.13
2023-03-15T00:13:03.570Z,100195.88
2023-03-15T00:15:31.651Z,100202.78
2023-03-15T00:17:59.915Z,100205.56
2023-03-15T00:20:30.259Z,100215.09
2023-03-15T00:22:57.979Z,100212.63
2023-03-15T00:25:25.784Z,100220.44
2023-03-15T00:27:53.706Z,100221.41
2023-03-15T00:30:23.332Z,100223.13
2023-03-15T00:32:53.886Z,100231.78
2023-03-15T00:35:22.136Z,100236.06
2023-03-15T00:37:49.945Z,100236.19
2023-03-15T00:40:18.576Z,100237.94
2023-03-15T00:42:50.006Z,100240.56
2023-03-15T00:45:19.148Z,100244.03
2023-03-15T00:47:50.528Z,100252.63
2023-03-15T00:50:18.800Z,100248.34
2023-03-15T00:52:47.701Z,100248.38
2023-03-15T00:55:17.292Z,100255.22
2023-03-15T00:57:47.625Z,100254.53
2023-03-15T01:00:20.007Z,100258.00
2023-03-15T01:02:50.754Z,100260.69
2023-03-15T01:05:18.800Z,100260.78
2023-03-15T01:07:47.105Z,100267.69
2023-03-15T01:10:15.960Z,100260.91
2023-03-15T01:12:43.972Z,100259.25
2023-03-15T01:15:14.290Z,100261.88
2023-03-15T01:17:42.600Z,100259.34
2023-03-15T01:20:13.642Z,100271.31
2023-03-15T01:22:43.063Z,100273.91
2023-03-15T01:25:11.423Z,100276.44
2023-03-15T01:27:39.348Z,100283.28
2023-03-15T01:30:08.587Z,100279.03
2023-03-15T01:32:36.395Z,100288.50
2023-03-15T01:35:05.519Z,100287.66
2023-03-15T01:37:34.687Z,100287.69
2023-03-15T01:40:06.205Z,100296.25
2023-03-15T01:42:33.921Z,100288.56
2023-03-15T01:45:01.974Z,100290.25
2023-03-15T01:47:32.781Z,100297.97
2023-03-15T01:50:07.018Z,100295.38
2023-03-15T01:52:40.171Z,100293.66
2023-03-15T01:55:11.521Z,100293.59
2023-03-15T01:57:51.185Z,100290.16
2023-03-15T02:00:21.360Z,100299.56
2023-03-15T02:03:04.936Z,100287.56
2023-03-15T02:05:36.492Z,100289.28
2023-03-15T02:08:10.104Z,100278.16
2023-03-15T02:10:44.318Z,100284.97
2023-03-15T02:13:16.568Z,100301.22
2023-03-15T02:15:46.636Z,100308.06
2023-03-15T02:18:21.677Z,100303.81
2023-03-15T02:20:57.204Z,100299.53
2023-03-15T02:23:26.396Z,100305.53
2023-03-15T02:26:03.938Z,100302.16
2023-03-15T02:28:33.342Z,100305.69
2023-03-15T02:31:02.265Z,100307.44
2023-03-15T02:33:33.702Z,100322.78
2023-03-15T02:36:11.432Z,100313.38
2023-03-15T02:38:39.163Z,100318.53
2023-03-15T02:41:08.256Z,100322.84
2023-03-15T02:43:37.887Z,100323.69
2023-03-15T02:46:07.221Z,100330.53
2023-03-15T02:48:38.649Z,100333.09
2023-03-15T02:51:06.680Z,100333.94
2023-03-15T02:53:35.421Z,100341.63
2023-03-15T02:56:03.550Z,100338.22
2023-03-15T02:58:32.474Z,100336.50
2023-03-15T03:01:07.374Z,100334.72
2023-03-15T03:03:35.238Z,100339.84
2023-03-15T03:06:03.292Z,100337.13
2023-03-15T03:08:31.003Z,100339.63
2023-03-15T03:11:00.102Z,100348.22
2023-03-15T03:13:29.215Z,100346.47
2023-03-15T03:16:00.150Z,100349.91
2023-03-15T03:18:35.629Z,100343.88
2023-03-15T03:21:06.588Z,100348.16
2023-03-15T03:23:35.844Z,100350.75
2023-03-15T03:26:05.401Z,100358.44
2023-03-15T03:28:34.000Z,100360.13
2023-03-15T03:31:05.997Z,100356.63
2023-03-15T03:33:35.469Z,100365.22
2023-03-15T03:36:04.062Z,100363.53
2023-03-15T03:38:31.885Z,100361.88
2023-03-15T03:41:04.196Z,100367.88
2023-03-15T03:43:34.094Z,100374.72
2023-03-15T03:46:03.873Z,100382.50
2023-03-15T03:48:34.860Z,100391.06
2023-03-15T03:51:03.764Z,100385.09
2023-03-15T03:53:31.793Z,100389.28
2023-03-15T03:55:59.998Z,100388.38
2023-03-15T03:58:28.243Z,100390.09
2023-03-15T04:01:01.878Z,100388.34
2023-03-15T04:03:33.337Z,100384.06
2023-03-15T04:06:13.037Z,100386.56
2023-03-15T04:08:44.773Z,100378.84
2023-03-15T04:11:17.510Z,100383.09
2023-03-15T04:13:50.692Z,100377.94
2023-03-15T04:16:18.660Z,100389.03
2023-03-15T04:18:57.673Z,100401.88
2023-03-15T04:21:31.779Z,100391.63
2023-03-15T04:24:08.801Z,100401.88
2023-03-15T04:26:51.077Z,100405.31
2023-03-15T04:29:30.728Z,100407.88
2023-03-15T04:32:13.197Z,100410.44
2023-03-15T04:34:51.514Z,100406.16
2023-03-15T04:37:38.587Z,100405.28
2023-03-15T04:40:37.468Z,100401.00
2023-03-15T04:43:17.467Z,100421.50
2023-03-15T04:46:06.924Z,100404.41
2023-03-15T04:48:53.474Z,100407.75
2023-03-15T04:51:56.787Z,100406.88
2023-03-15T04:54:36.798Z,100412.00
2023-03-15T04:57:20.313Z,100402.50
2023-03-15T04:59:50.811Z,100404.19
2023-03-15T05:02:43.049Z,100397.41
2023-03-15T05:05:24.867Z,100405.78
2023-03-15T05:07:52.687Z,100410.03
2023-03-15T05:10:39.862Z,100408.38
2023-03-15T05:13:26.440Z,100402.44
2023-03-15T05:16:20.545Z,100413.53
2023-03-15T05:18:51.244Z,100425.50
2023-03-15T05:21:32.637Z,100426.41
2023-03-15T05:24:35.956Z,100423.03
2023-03-15T05:27:18.454Z,100430.66
2023-03-15T05:30:09.694Z,100434.91
2023-03-15T05:33:05.116Z,100452.03
2023-03-15T05:35:36.136Z,100446.03
2023-03-15T05:38:26.783Z,100440.88
2023-03-15T05:41:04.545Z,100447.66
2023-03-15T05:43:59.331Z,100437.41
2023-03-15T05:46:40.811Z,100431.31
2023-03-15T05:49:28.857Z,100431.09
2023-03-15T05:52:14.335Z,100431.25
2023-03-15T05:54:55.293Z,100440.59
2023-03-15T05:57:43.629Z,100446.69
2023-03-15T06:00:35.649Z,100456.13
2023-03-15T06:03:12.198Z,100447.53
2023-03-15T06:05:56.698Z,100460.41
2023-03-15T06:08:33.583Z,100458.69
2023-03-15T06:11:03.802Z,100470.69
2023-03-15T06:13:33.200Z,100473.22
2023-03-15T06:16:07.167Z,100468.00
2023-03-15T06:18:37.817Z,100466.22
2023-03-15T06:21:06.013Z,100469.56
2023-03-15T06:23:34.337Z,100479.06
2023-03-15T06:26:03.389Z,100481.63
2023-03-15T06:28:33.233Z,100490.13
2023-03-15T06:31:08.883Z,100505.63
2023-03-15T06:33:42.838Z,100512.44
2023-03-15T06:36:12.567Z,100503.84
2023-03-15T06:38:41.804Z,100499.59
2023-03-15T06:41:09.617Z,100508.97
2023-03-15T06:43:38.229Z,100502.84
2023-03-15T06:46:08.621Z,100505.41
2023-03-15T06:48:36.327Z,100498.56
2023-03-15T06:51:05.958Z,100507.13
2023-03-15T06:53:36.303Z,100524.31
2023-03-15T06:56:07.292Z,100526.09
2023-03-15T06:58:35.135Z,100523.38
2023-03-15T07:01:05.604Z,100535.44
2023-03-15T07:03:34.811Z,100529.44
2023-03-15T07:06:05.504Z,100530.25
2023-03-15T07:08:33.383Z,100534.34
2023-03-15T07:11:02.551Z,100539.56
2023-03-15T07:13:30.751Z,100533.56
2023-03-15T07:15:58.592Z,100525.91
2023-03-15T07:18:26.536Z,100518.22
2023-03-15T07:21:01.690Z,100521.53
2023-03-15T07:23:31.240Z,100513.88
2023-03-15T07:25:59.136Z,100524.97
2023-03-15T07:28:28.443Z,100524.97
2023-03-15T07:30:57.696Z,100519.91
2023-03-15T07:33:26.682Z,100527.56
2023-03-15T07:35:55.004Z,100531.84
2023-03-15T07:38:26.329Z,100530.94
2023-03-15T07:40:54.191Z,100528.28
2023-03-15T07:43:22.783Z,100533.47
2023-03-15T07:45:57.814Z,100533.47
2023-03-15T07:48:25.657Z,100536.06
2023-03-15T07:50:53.409Z,100543.66
2023-03-15T07:53:21.884Z,100542.00
2023-03-15T07:55:51.638Z,100546.28
2023-03-15T07:58:20.494Z,100550.69
2023-03-15T08:00:48.942Z,100554.97
2023-03-15T08:03:16.884Z,100561.03
2023-03-15T08:05:44.637Z,100562.69
2023-03-15T08:08:12.330Z,100567.81
2023-03-15T08:10:40.882Z,100565.28
2023-03-15T08:13:10.235Z,100570.38
2023-03-15T08:15:38.090Z,100572.06
2023-03-15T08:18:06.939Z,100576.47
2023-03-15T08:20:34.786Z,100577.19
2023-03-15T08:23:04.699Z,100573.78
2023-03-15T08:25:32.573Z,100576.28
2023-03-15T08:28:01.255Z,100576.28
2023-03-15T08:30:30.712Z,100581.47
2023-03-15T08:32:59.174Z,100587.44
2023-03-15T08:35:28.071Z,100590.06
2023-03-15T08:37:56.620Z,100589.97
2023-03-15T08:40:26.282Z,100590.00
2023-03-15T08:42:55.316Z,100598.59
2023-03-15T08:45:24.134Z,100592.56
2023-03-15T08:47:55.736Z,100589.81
2023-03-15T08:50:24.132Z,100583.72
2023-03-15T08:52:52.357Z,100593.16
2023-03-15T08:55:20.261Z,100590.31
2023-03-15T08:57:48.061Z,100590.84
2023-03-15T09:00:20.736Z,100592.16
2023-03-15T09:02:49.902Z,100589.56
2023-03-15T09:05:19.409Z,100589.72
2023-03-15T09:07:48.322Z,100592.25
2023-03-15T09:10:18.696Z,100592.25
2023-03-15T09:12:48.330Z,100602.50
2023-03-15T09:15:16.902Z,100601.63
2023-03-15T09:17:44.669Z,100597.19
2023-03-15T09:20:16.587Z,100611.22
2023-03-15T09:22:51.693Z,100612.09
2023-03-15T09:25:20.263Z,100617.94
2023-03-15T09:27:48.175Z,100608.13
2023-03-15T09:30:16.587Z,100617.03
2023-03-15T09:32:45.811Z,100624.19
2023-03-15T09:35:15.711Z,100620.38
2023-03-15T09:37:44.812Z,100625.53
2023-03-15T09:40:21.941Z,100629.66
2023-03-15T09:43:00.634Z,100632.81
2023-03-15T09:45:36.886Z,100635.28
2023-03-15T09:48:10.147Z,100633.41
2023-03-15T09:50:43.248Z,100641.13
2023-03-15T09:53:16.413Z,100651.47
2023-03-15T09:55:46.729Z,100645.19
2023-03-15T09:58:20.228Z,100638.16
2023-03-15T10:00:52.301Z,100639.66
2023-03-15T10:03:27.975Z,100646.47
2023-03-15T10:06:00.302Z,100642.22
2023-03-15T10:08:30.816Z,100645.25
2023-03-15T10:11:07.251Z,100644.91
2023-03-15T10:13:52.123Z,100644.69
2023-03-15T10:16:31.338Z,100640.59
2023-03-15T10:19:08.021Z,100641.75
2023-03-15T10:21:43.512Z,100644.28
2023-03-15T10:24:20.075Z,100655.69
2023-03-15T10:26:51.282Z,100648.72
2023-03-15T10:29:22.119Z,100646.59
2023-03-15T10:31:52.666Z,100649.66
2023-03-15T10:34:21.704Z,100659.00
2023-03-15T10:36:55.409Z,100660.72
2023-03-15T10:39:26.448Z,100645.38
2023-03-15T10:41:55.061Z,100640.94
2023-03-15T10:44:26.008Z,100648.38
2023-03-15T10:47:16.096Z,100638.56
2023-03-15T10:49:50.064Z,100639.75
2023-03-15T10:52:45.030Z,100647.50
2023-03-15T10:55:16.912Z,100637.78
2023-03-15T10:57:54.307Z,100636.94
2023-03-15T11:00:29.500Z,100634.50
2023-03-15T11:03:04.823Z,100630.88
2023-03-15T11:05:39.117Z,100639.91
2023-03-15T11:08:13.522Z,100628.22
2023-03-15T11:10:44.344Z,100633.88
2023-03-15T11:13:14.832Z,100635.50
2023-03-15T11:15:51.381Z,100629.41
2023-03-15T11:18:20.649Z,100630.53
2023-03-15T11:20:48.506Z,100638.28
2023-03-15T11:23:20.464Z,100626.66
2023-03-15T11:25:50.412Z,100631.66
2023-03-15T11:28:20.738Z,100622.66
2023-03-15T11:30:49.449Z,100619.38
2023-03-15T11:33:33.601Z,100624.00
2023-03-15T11:36:05.056Z,100617.09
2023-03-15T11:38:36.400Z,100624.34
2023-03-15T11:41:12.772Z,100625.47
2023-03-15T11:43:50.489Z,100629.38
2023-03-15T11:46:28.436Z,100623.13
2023-03-15T11:49:04.811Z,100623.91
2023-03-15T11:51:37.397Z,100634.88
2023-03-15T11:54:10.618Z,100636.84
2023-03-15T11:56:53.105Z,100642.97
2023-03-15T11:59:25.895Z,100636.75
2023-03-15T12:01:59.020Z,100633.16
2023-03-15T12:04:44.921Z,100634.13
2023-03-15T12:07:40.851Z,100629.31
2023-03-15T12:10:46.688Z,100635.19
2023-03-15T12:13:25.402Z,100639.84
2023-03-15T12:15:53.816Z,100641.25
2023-03-15T12:18:32.902Z,100634.00
2023-03-15T12:21:13.827Z,100636.41
2023-03-15T12:23:45.228Z,100631.69
2023-03-15T12:26:26.339Z,100627.72
2023-03-15T12:29:07.384Z,100634.97
2023-03-15T12:31:47.626Z,100638.94
2023-03-15T12:34:23.978Z,100642.19
2023-03-15T12:36:57.515Z,100647.53
2023-03-15T12:39:42.514Z,100657.00
2023-03-15T12:42:33.056Z,100653.66
2023-03-15T12:45:39.113Z,100646.22
2023-03-15T12:48:31.273Z,100625.63
2023-03-15T12:51:36.953Z,100624.03
2023-03-15T12:54:14.196Z,100611.41
2023-03-15T12:56:47.650Z,100604.81
2023-03-15T13:02:42.733Z,100608.41
2023-03-15T13:05:24.963Z,100599.50
2023-03-15T13:07:58.996Z,100591.63
2023-03-15T13:10:53.215Z,100588.38
2023-03-15T13:13:44.809Z,100595.47
2023-03-15T13:16:24.728Z,100596.44
2023-03-15T13:19:05.390Z,100589.13
2023-03-15T13:21:35.897Z,100599.97
2023-03-15T13:24:12.876Z,100617.34
2023-03-15T13:26:56.057Z,100622.34
2023-03-15T13:29:30.636Z,100637.31
2023-03-15T13:32:04.644Z,100648.53
2023-03-15T13:34:34.373Z,100647.84
2023-03-15T13:37:04.302Z,100640.84
2023-03-15T13:39:34.017Z,100638.66
2023-03-15T13:42:06.178Z,100645.28
2023-03-15T13:44:35.302Z,100636.44
2023-03-15T13:47:04.161Z,100641.06
2023-03-15T13:49:34.567Z,100641.28
2023-03-15T13:52:12.266Z,100648.00
2023-03-15T13:54:44.081Z,100646.38
2023-03-15T13:57:17.249Z,100653.28
2023-03-15T13:59:48.391Z,100654.84
2023-03-15T14:02:19.238Z,100664.16
2023-03-15T14:04:53.857Z,100667.69
2023-03-15T14:07:31.059Z,100670.56
2023-03-15T14:10:33.050Z,100673.50
2023-03-15T14:13:21.849Z,100688.34
2023-03-15T14:15:51.130Z,100688.00
2023-03-15T14:18:23.839Z,100695.44
2023-03-15T14:20:58.303Z,100678.78
2023-03-15T14:23:27.764Z,100676.50
2023-03-15T14:26:03.626Z,100674.91
2023-03-15T14:28:34.707Z,100667.75
2023-03-15T14:31:04.506Z,100659.53
2023-03-15T14:33:39.933Z,100672.47
2023-03-15T14:36:10.390Z,100674.28
2023-03-15T14:38:40.144Z,100666.94
2023-03-15T14:41:36.208Z,100669.81
2023-03-15T14:44:05.597Z,100678.00
2023-03-15T14:46:34.026Z,100682.06
2023-03-15T14:49:02.854Z,100677.34
2023-03-15T14:51:32.698Z,100683.41
2023-03-15T14:54:02.590Z,100691.28
2023-03-15T14:56:31.052Z,100689.81
2023-03-15T14:58:59.910Z,100699.44
2023-03-15T15:01:29.961Z,100699.53
2023-03-15T15:04:03.298Z,100704.09
2023-03-15T15:06:32.852Z,100705.94
2023-03-15T15:09:02.138Z,100690.88
2023-03-15T15:11:29.913Z,100683.69
2023-03-15T15:13:58.840Z,100683.34
2023-03-15T15:16:27.250Z,100684.59
2023-03-15T15:18:57.649Z,100686.25
2023-03-15T15:21:30.649Z,100682.50
2023-03-15T15:24:01.370Z,100693.72
2023-03-15T15:26:31.775Z,100688.56
2023-03-15T15:29:01.415Z,100698.25
2023-03-15T15:31:33.867Z,100697.38
2023-03-15T15:34:04.950Z,100698.16
2023-03-15T15:36:35.541Z,100704.41
2023-03-15T15:39:07.398Z,100705.34
2023-03-15T15:41:36.082Z,100701.25
2023-03-15T15:44:05.946Z,100702.03
2023-03-15T15:46:34.384Z,100707.56
2023-03-15T15:49:04.318Z,100706.44
2023-03-15T15:51:38.011Z,100703.16
2023-03-15T15:54:07.178Z,100705.94
2023-03-15T15:56:39.942Z,100709.25
2023-03-15T15:59:13.620Z,100707.34
2023-03-15T16:01:56.771Z,100711.78
2023-03-15T16:04:29.148Z,100716.84
2023-03-15T16:06:59.829Z,100714.19
2023-03-15T16:09:30.079Z,100723.84
2023-03-15T16:11:58.453Z,100723.94
2023-03-15T16:14:26.225Z,100722.22
2023-03-15T16:16:54.317Z,100724.78
2023-03-15T16:19:22.155Z,100727.69
2023-03-15T16:21:54.749Z,100722.31
2023-03-15T16:24:26.550Z,100732.22
2023-03-15T16:27:00.177Z,100736.91
2023-03-15T16:29:33.556Z,100740.56
2023-03-15T16:32:16.528Z,100739.59
2023-03-15T16:34:47.576Z,100744.88
2023-03-15T16:37:20.806Z,100743.53
2023-03-15T16:39:50.736Z,100746.09
2023-03-15T16:42:20.217Z,100745.53
2023-03-15T16:44:48.430Z,100759.38
2023-03-15T16:47:16.165Z,100757.75
2023-03-15T16:49:44.064Z,100762.03
2023-03-15T16:52:13.455Z,100764.72
2023-03-15T16:54:47.619Z,100763.09
2023-03-15T16:57:19.946Z,100764.06
2023-03-15T16:59:47.871Z,100771.81
2023-03-15T17:02:19.549Z,100766.78
2023-03-15T17:04:47.613Z,100766.06
2023-03-15T17:07:17.180Z,100770.50
2023-03-15T17:09:49.193Z,100771.44
2023-03-15T17:12:22.496Z,100774.13
2023-03-15T17:14:51.876Z,100774.19
2023-03-15T17:17:19.750Z,100777.69
2023-03-15T17:19:48.245Z,100775.22
2023-03-15T17:22:17.567Z,100775.34
2023-03-15T17:24:46.962Z,100784.88
2023-03-15T17:27:23.305Z,100795.28
2023-03-15T17:29:51.698Z,100789.34
2023-03-15T17:32:19.403Z,100791.16
2023-03-15T17:34:47.941Z,100799.00
2023-03-15T17:37:16.352Z,100800.69
2023-03-15T17:39:47.695Z,100794.78
2023-03-15T17:42:15.728Z,100800.91
2023-03-15T17:44:45.598Z,100809.53
2023-03-15T17:47:14.147Z,100814.78
2023-03-15T17:49:42.160Z,100811.38
2023-03-15T17:52:15.295Z,100808.00
2023-03-15T17:54:44.193Z,100818.34
2023-03-15T17:57:14.618Z,100818.34
2023-03-15T17:59:42.674Z,100819.25
2023-03-15T18:02:16.856Z,100823.59
2023-03-15T18:04:44.967Z,100827.03
2023-03-15T18:07:14.475Z,100827.91
2023-03-15T18:09:42.374Z,100829.72
2023-03-15T18:12:12.824Z,100839.13
2023-03-15T18:14:44.229Z,100833.19
2023-03-15T18:17:12.960Z,100846.06
2023-03-15T18:19:41.947Z,100847.84
2023-03-15T18:22:16.411Z,100852.19
2023-03-15T18:24:46.908Z,100852.22
2023-03-15T18:27:15.887Z,100859.94
2023-03-15T18:29:45.474Z,100859.03
2023-03-15T18:32:13.952Z,100860.81
2023-03-15T18:34:43.042Z,100858.22
2023-03-15T18:37:11.808Z,100865.09
2023-03-15T18:39:39.637Z,100860.81
2023-03-15T18:42:07.640Z,100861.72
2023-03-15T18:44:38.274Z,100856.63
2023-03-15T18:47:08.682Z,100851.50
2023-03-15T18:49:36.768Z,100855.75
2023-03-15T18:52:05.060Z,100859.25
2023-03-15T18:54:32.904Z,100860.09
2023-03-15T18:57:02.227Z,100854.09
2023-03-15T18:59:30.040Z,100860.97
2023-03-15T19:01:57.753Z,100856.66
2023-03-15T19:04:26.945Z,100858.38
2023-03-15T19:06:54.645Z,100856.69
2023-03-15T19:09:22.305Z,100863.63
2023-03-15T19:11:50.048Z,100877.41
2023-03-15T19:14:19.398Z,100870.59
2023-03-15T19:16:47.273Z,100874.84
2023-03-15T19:19:15.006Z,100877.47
2023-03-15T19:21:44.045Z,100886.03
2023-03-15T19:24:11.755Z,100891.25
2023-03-15T19:26:39.541Z,100896.34
2023-03-15T19:29:07.843Z,100889.44
2023-03-15T19:31:36.538Z,100890.28
2023-03-15T19:34:05.900Z,100892.84
2023-03-15T19:36:34.045Z,100898.81
2023-03-15T19:39:05.709Z,100901.41
2023-03-15T19:41:34.295Z,100900.53
2023-03-15T19:44:03.811Z,100903.97
2023-03-15T19:46:31.885Z,100903.97
2023-03-15T19:48:59.908Z,100909.97
2023-03-15T19:51:28.445Z,100917.72
2023-03-15T19:53:56.667Z,100908.25
2023-03-15T19:56:25.879Z,100903.16
2023-03-15T19:58:54.959Z,100899.75
2023-03-15T20:01:24.267Z,100909.22
2023-03-15T20:03:52.455Z,100912.66
2023-03-15T20:06:21.575Z,100909.25
2023-03-15T20:08:49.995Z,100911.81
2023-03-15T20:11:21.838Z,100909.25
2023-03-15T20:13:52.291Z,100911.78
2023-03-15T20:16:20.415Z,100898.94
2023-03-15T20:18:51.080Z,100911.94
2023-03-15T20:21:19.802Z,100912.81
2023-03-15T20:23:48.058Z,100913.66
2023-03-15T20:26:18.093Z,100918.78
2023-03-15T20:28:47.146Z,100929.06
2023-03-15T20:31:18.334Z,100925.63
2023-03-15T20:33:49.403Z,100923.03
2023-03-15T20:36:17.900Z,100932.56
2023-03-15T20:38:46.321Z,100938.63
2023-03-15T20:41:14.433Z,100938.66
2023-03-15T20:43:43.047Z,100939.50
2023-03-15T20:46:13.435Z,100938.66
2023-03-15T20:48:42.844Z,100934.34
2023-03-15T20:51:10.519Z,100951.47
2023-03-15T20:53:38.435Z,100944.63
2023-03-15T20:56:07.306Z,100948.88
2023-03-15T20:58:35.664Z,100939.47
2023-03-15T21:01:05.995Z,100948.03
2023-03-15T21:03:35.539Z,100939.50
2023-03-15T21:06:06.827Z,100945.47
2023-03-15T21:08:36.061Z,100939.50
2023-03-15T21:11:05.823Z,100946.34
2023-03-15T21:13:33.636Z,100942.09
2023-03-15T21:16:03.957Z,100935.22
2023-03-15T21:18:33.552Z,100942.94
2023-03-15T21:21:04.089Z,100943.78
2023-03-15T21:23:33.947Z,100951.50
2023-03-15T21:26:04.318Z,100949.75
2023-03-15T21:28:32.830Z,100953.19
2023-03-15T21:31:01.216Z,100949.78
2023-03-15T21:33:30.933Z,100947.22
2023-03-15T21:36:00.146Z,100948.94
2023-03-15T21:38:29.204Z,100956.63
2023-03-15T21:40:59.706Z,100948.06
2023-03-15T21:43:29.162Z,100963.44
2023-03-15T21:46:00.450Z,100964.31
2023-03-15T21:48:28.787Z,100958.31
2023-03-15T21:50:57.265Z,100954.03
2023-03-15T21:53:25.258Z,100955.75
2023-03-15T21:55:57.845Z,100969.44
2023-03-15T21:58:27.209Z,100964.28
2023-03-15T22:00:59.271Z,100966.84
2023-03-15T22:03:27.148Z,100960.00
2023-03-15T22:05:54.949Z,100956.59
2023-03-15T22:08:22.809Z,100954.00
2023-03-15T22:10:53.493Z,100961.69
2023-03-15T22:13:21.693Z,100960.81
2023-03-15T22:15:52.108Z,100950.50
2023-03-15T22:18:20.717Z,100954.78
2023-03-15T22:20:48.802Z,100949.66
2023-03-15T22:23:17.153Z,100955.66
2023-03-15T22:25:44.941Z,100958.28
2023-03-15T22:28:12.953Z,100951.41
2023-03-15T22:30:41.161Z,100942.03
2023-03-15T22:33:10.575Z,100939.44
2023-03-15T22:35:38.349Z,100941.16
2023-03-15T22:38:09.995Z,100945.44
2023-03-15T22:40:39.455Z,100942.00
2023-03-15T22:43:08.288Z,100945.41
2023-03-15T22:45:36.783Z,100953.06
2023-03-15T22:48:05.230Z,100946.22
2023-03-15T22:50:34.826Z,100949.63
2023-03-15T22:53:04.270Z,100943.69
2023-03-15T22:55:32.002Z,100941.97
2023-03-15T22:57:59.775Z,100944.53
2023-03-15T23:00:28.083Z,100947.97
2023-03-15T23:02:55.922Z,100952.22
2023-03-15T23:05:23.581Z,100946.25
2023-03-15T23:07:52.679Z,100940.28
2023-03-15T23:10:21.009Z,100952.25
2023-03-15T23:12:49.018Z,100941.13
2023-03-15T23:15:16.834Z,100941.97
2023-03-15T23:17:46.957Z,100941.97
2023-03-15T23:20:15.960Z,100942.81
2023-03-15T23:22:44.332Z,100942.81
2023-03-15T23:25:15.758Z,100936.78
2023-03-15T23:27:43.785Z,100936.78
2023-03-15T23:30:12.879Z,100936.81
2023-03-15T23:32:41.842Z,100935.97
2023-03-15T23:35:12.467Z,100939.34
2023-03-15T23:37:41.414Z,100944.50
2023-03-15T23:40:14.017Z,100934.25
2023-03-15T23:42:43.740Z,100943.63
2023-03-15T23:45:13.220Z,100940.22
2023-03-15T23:47:41.767Z,100941.06
2023-03-15T23:50:12.486Z,100946.22
2023-03-15T23:52:41.363Z,100951.34
2023-03-15T23:55:09.865Z,100953.03
2023-03-15T23:57:37.590Z,100954.72
